sensor_id;sensor_type;location;lat;lon;timestamp;P1;durP1;ratioP1;P2;durP2;ratioP2
11893;SDS011;6006;49.696;8.662;2023-02-19T00:01:26;6.20;;;5.07;;
11893;SDS011;6006;49.696;8.662;2023-02-19T00:03:55;5.00;;;4.40;;
11893;SDS011;6006;49.696;8.662;2023-02-19T00:06:24;5.10;;;4.70;;
11893;SDS011;6006;49.696;8.662;2023-02-19T00:08:53;4.97;;;4.57;;
11893;SDS011;6006;49.696;8.662;2023-02-19T00:11:22;6.30;;;4.93;;
11893;SDS011;6006;49.696;8.662;2023-02-19T00:13:51;5.77;;;5.23;;
11893;SDS011;6006;49.696;8.662;2023-02-19T00:16:20;4.80;;;4.43;;
11893;SDS011;6006;49.696;8.662;2023-02-19T00:18:48;4.83;;;4.43;;
11893;SDS011;6006;49.696;8.662;2023-02-19T00:21:15;5.03;;;4.37;;
11893;SDS011;6006;49.696;8.662;2023-02-19T00:23:47;5.43;;;4.93;;
11893;SDS011;6006;49.696;8.662;2023-02-19T00:26:15;4.50;;;4.10;;
11893;SDS011;6006;49.696;8.662;2023-02-19T00:28:43;5.03;;;4.57;;
11893;SDS011;6006;49.696;8.662;2023-02-19T00:31:13;5.07;;;4.57;;
11893;SDS011;6006;49.696;8.662;2023-02-19T00:33:42;4.87;;;4.47;;
11893;SDS011;6006;49.696;8.662;2023-02-19T00:36:09;4.50;;;4.10;;
11893;SDS011;6006;49.696;8.662;2023-02-19T00:38:37;5.13;;;4.63;;
11893;SDS011;6006;49.696;8.662;2023-02-19T00:41:06;4.33;;;3.90;;
11893;SDS011;6006;49.696;8.662;2023-02-19T00:43:46;4.70;;;4.30;;
11893;SDS011;6006;49.696;8.662;2023-02-19T00:46:13;4.73;;;4.30;;
11893;SDS011;6006;49.696;8.662;2023-02-19T00:48:41;4.63;;;4.20;;
11893;SDS011;6006;49.696;8.662;2023-02-19T00:51:07;4.80;;;4.13;;
11893;SDS011;6006;49.696;8.662;2023-02-19T00:53:35;4.30;;;3.90;;
11893;SDS011;6006;49.696;8.662;2023-02-19T00:56:02;4.43;;;4.03;;
11893;SDS011;6006;49.696;8.662;2023-02-19T00:58:29;4.40;;;4.00;;
11893;SDS011;6006;49.696;8.662;2023-02-19T01:00:57;3.93;;;3.63;;
11893;SDS011;6006;49.696;8.662;2023-02-19T01:03:25;4.20;;;3.70;;
11893;SDS011;6006;49.696;8.662;2023-02-19T01:05:52;4.93;;;3.50;;
11893;SDS011;6006;49.696;8.662;2023-02-19T01:08:19;3.70;;;3.40;;
11893;SDS011;6006;49.696;8.662;2023-02-19T01:10:46;4.13;;;3.77;;
11893;SDS011;6006;49.696;8.662;2023-02-19T01:13:13;4.40;;;4.00;;
11893;SDS011;6006;49.696;8.662;2023-02-19T01:15:40;3.87;;;3.57;;
11893;SDS011;6006;49.696;8.662;2023-02-19T01:18:08;3.90;;;3.60;;
11893;SDS011;6006;49.696;8.662;2023-02-19T01:20:37;3.93;;;3.63;;
11893;SDS011;6006;49.696;8.662;2023-02-19T01:23:04;5.87;;;4.10;;
11893;SDS011;6006;49.696;8.662;2023-02-19T01:25:31;4.20;;;3.90;;
11893;SDS011;6006;49.696;8.662;2023-02-19T01:27:58;4.23;;;3.80;;
11893;SDS011;6006;49.696;8.662;2023-02-19T01:30:25;4.77;;;4.30;;
11893;SDS011;6006;49.696;8.662;2023-02-19T01:32:52;4.90;;;4.30;;
11893;SDS011;6006;49.696;8.662;2023-02-19T01:35:20;4.33;;;4.00;;
11893;SDS011;6006;49.696;8.662;2023-02-19T01:37:47;5.00;;;4.30;;
11893;SDS011;6006;49.696;8.662;2023-02-19T01:40:15;4.30;;;3.90;;
11893;SDS011;6006;49.696;8.662;2023-02-19T01:42:42;5.23;;;4.60;;
11893;SDS011;6006;49.696;8.662;2023-02-19T01:48:06;4.27;;;3.83;;
11893;SDS011;6006;49.696;8.662;2023-02-19T01:50:39;4.60;;;4.20;;
11893;SDS011;6006;49.696;8.662;2023-02-19T01:53:10;4.20;;;3.77;;
11893;SDS011;6006;49.696;8.662;2023-02-19T01:55:38;5.00;;;4.50;;
11893;SDS011;6006;49.696;8.662;2023-02-19T01:58:06;6.63;;;3.70;;
11893;SDS011;6006;49.696;8.662;2023-02-19T02:00:35;4.93;;;4.43;;
11893;SDS011;6006;49.696;8.662;2023-02-19T02:03:02;5.47;;;4.13;;
11893;SDS011;6006;49.696;8.662;2023-02-19T02:05:34;4.40;;;4.00;;
11893;SDS011;6006;49.696;8.662;2023-02-19T02:08:09;3.90;;;3.37;;
11893;SDS011;6006;49.696;8.662;2023-02-19T02:10:54;5.70;;;4.37;;
11893;SDS011;6006;49.696;8.662;2023-02-19T02:13:23;4.67;;;4.27;;
11893;SDS011;6006;49.696;8.662;2023-02-19T02:15:51;4.30;;;3.90;;
11893;SDS011;6006;49.696;8.662;2023-02-19T02:18:27;4.20;;;3.80;;
11893;SDS011;6006;49.696;8.662;2023-02-19T02:21:03;3.77;;;3.47;;
11893;SDS011;6006;49.696;8.662;2023-02-19T02:23:45;4.10;;;3.70;;
11893;SDS011;6006;49.696;8.662;2023-02-19T02:26:29;3.93;;;3.53;;
11893;SDS011;6006;49.696;8.662;2023-02-19T02:29:16;4.90;;;3.80;;
11893;SDS011;6006;49.696;8.662;2023-02-19T02:32:07;3.63;;;3.33;;
11893;SDS011;6006;49.696;8.662;2023-02-19T02:34:38;3.10;;;2.90;;
11893;SDS011;6006;49.696;8.662;2023-02-19T02:37:11;4.10;;;3.47;;
11893;SDS011;6006;49.696;8.662;2023-02-19T02:39:40;4.47;;;3.23;;
11893;SDS011;6006;49.696;8.662;2023-02-19T02:42:09;3.67;;;3.30;;
11893;SDS011;6006;49.696;8.662;2023-02-19T02:45:14;3.53;;;3.10;;
11893;SDS011;6006;49.696;8.662;2023-02-19T02:48:02;3.27;;;2.97;;
11893;SDS011;6006;49.696;8.662;2023-02-19T02:50:42;3.20;;;2.90;;
11893;SDS011;6006;49.696;8.662;2023-02-19T02:53:14;3.03;;;2.73;;
11893;SDS011;6006;49.696;8.662;2023-02-19T02:56:02;3.73;;;3.43;;
11893;SDS011;6006;49.696;8.662;2023-02-19T02:58:30;2.70;;;2.50;;
11893;SDS011;6006;49.696;8.662;2023-02-19T03:01:00;3.50;;;3.20;;
11893;SDS011;6006;49.696;8.662;2023-02-19T03:03:50;2.90;;;2.70;;
11893;SDS011;6006;49.696;8.662;2023-02-19T03:06:21;2.80;;;2.60;;
11893;SDS011;6006;49.696;8.662;2023-02-19T03:08:51;4.00;;;3.53;;
11893;SDS011;6006;49.696;8.662;2023-02-19T03:11:22;3.00;;;2.80;;
11893;SDS011;6006;49.696;8.662;2023-02-19T03:14:09;3.50;;;3.00;;
11893;SDS011;6006;49.696;8.662;2023-02-19T03:16:59;3.30;;;3.00;;
11893;SDS011;6006;49.696;8.662;2023-02-19T03:19:52;3.10;;;2.90;;
11893;SDS011;6006;49.696;8.662;2023-02-19T03:22:21;3.63;;;3.33;;
11893;SDS011;6006;49.696;8.662;2023-02-19T03:24:53;3.30;;;3.07;;
11893;SDS011;6006;49.696;8.662;2023-02-19T03:27:40;3.70;;;3.40;;
11893;SDS011;6006;49.696;8.662;2023-02-19T03:30:10;3.33;;;3.03;;
11893;SDS011;6006;49.696;8.662;2023-02-19T03:32:40;3.30;;;3.07;;
11893;SDS011;6006;49.696;8.662;2023-02-19T03:35:12;4.03;;;3.10;;
11893;SDS011;6006;49.696;8.662;2023-02-19T03:37:40;3.67;;;3.37;;
11893;SDS011;6006;49.696;8.662;2023-02-19T03:40:12;3.50;;;3.20;;
11893;SDS011;6006;49.696;8.662;2023-02-19T03:42:41;3.83;;;3.50;;
11893;SDS011;6006;49.696;8.662;2023-02-19T03:45:21;3.43;;;3.13;;
11893;SDS011;6006;49.696;8.662;2023-02-19T03:47:53;3.23;;;3.03;;
11893;SDS011;6006;49.696;8.662;2023-02-19T03:50:33;3.93;;;3.20;;
11893;SDS011;6006;49.696;8.662;2023-02-19T03:53:08;3.80;;;3.50;;
11893;SDS011;6006;49.696;8.662;2023-02-19T03:55:44;3.30;;;3.00;;
11893;SDS011;6006;49.696;8.662;2023-02-19T03:58:19;3.60;;;3.30;;
11893;SDS011;6006;49.696;8.662;2023-02-19T04:00:52;3.30;;;3.00;;
11893;SDS011;6006;49.696;8.662;2023-02-19T04:03:24;4.70;;;3.30;;
11893;SDS011;6006;49.696;8.662;2023-02-19T04:06:00;3.30;;;2.93;;
11893;SDS011;6006;49.696;8.662;2023-02-19T04:08:30;3.60;;;3.30;;
11893;SDS011;6006;49.696;8.662;2023-02-19T04:11:01;3.97;;;3.37;;
11893;SDS011;6006;49.696;8.662;2023-02-19T04:13:30;4.53;;;3.20;;
11893;SDS011;6006;49.696;8.662;2023-02-19T04:16:01;3.77;;;3.27;;
11893;SDS011;6006;49.696;8.662;2023-02-19T04:18:33;3.80;;;3.40;;
11893;SDS011;6006;49.696;8.662;2023-02-19T04:21:04;3.80;;;3.37;;
11893;SDS011;6006;49.696;8.662;2023-02-19T04:23:34;3.53;;;3.17;;
11893;SDS011;6006;49.696;8.662;2023-02-19T04:26:04;2.93;;;2.73;;
11893;SDS011;6006;49.696;8.662;2023-02-19T04:28:33;3.20;;;2.90;;
11893;SDS011;6006;49.696;8.662;2023-02-19T04:31:01;3.97;;;3.40;;
11893;SDS011;6006;49.696;8.662;2023-02-19T04:33:28;3.37;;;3.07;;
11893;SDS011;6006;49.696;8.662;2023-02-19T04:35:55;3.57;;;3.27;;
11893;SDS011;6006;49.696;8.662;2023-02-19T04:38:23;3.73;;;3.43;;
11893;SDS011;6006;49.696;8.662;2023-02-19T04:40:50;3.90;;;3.50;;
11893;SDS011;6006;49.696;8.662;2023-02-19T04:43:17;4.17;;;3.77;;
11893;SDS011;6006;49.696;8.662;2023-02-19T04:45:44;3.50;;;3.20;;
11893;SDS011;6006;49.696;8.662;2023-02-19T04:48:11;4.47;;;3.97;;
11893;SDS011;6006;49.696;8.662;2023-02-19T04:50:39;3.33;;;3.03;;
11893;SDS011;6006;49.696;8.662;2023-02-19T04:53:06;4.17;;;3.40;;
11893;SDS011;6006;49.696;8.662;2023-02-19T04:55:36;3.83;;;3.50;;
11893;SDS011;6006;49.696;8.662;2023-02-19T04:58:03;3.80;;;3.50;;
11893;SDS011;6006;49.696;8.662;2023-02-19T05:00:30;3.53;;;3.23;;
11893;SDS011;6006;49.696;8.662;2023-02-19T05:02:58;3.33;;;2.90;;
11893;SDS011;6006;49.696;8.662;2023-02-19T05:05:25;3.53;;;3.23;;
11893;SDS011;6006;49.696;8.662;2023-02-19T05:07:52;3.07;;;2.83;;
11893;SDS011;6006;49.696;8.662;2023-02-19T05:10:19;3.10;;;2.80;;
11893;SDS011;6006;49.696;8.662;2023-02-19T05:12:47;3.27;;;2.97;;
11893;SDS011;6006;49.696;8.662;2023-02-19T05:15:14;3.17;;;2.87;;
11893;SDS011;6006;49.696;8.662;2023-02-19T05:17:41;2.53;;;2.33;;
11893;SDS011;6006;49.696;8.662;2023-02-19T05:20:08;3.93;;;2.97;;
11893;SDS011;6006;49.696;8.662;2023-02-19T05:22:35;3.20;;;3.00;;
11893;SDS011;6006;49.696;8.662;2023-02-19T05:25:03;3.70;;;3.17;;
11893;SDS011;6006;49.696;8.662;2023-02-19T05:27:30;2.67;;;2.47;;
11893;SDS011;6006;49.696;8.662;2023-02-19T05:29:58;4.13;;;3.20;;
11893;SDS011;6006;49.696;8.662;2023-02-19T05:32:25;3.30;;;2.93;;
11893;SDS011;6006;49.696;8.662;2023-02-19T05:34:52;3.37;;;3.07;;
11893;SDS011;6006;49.696;8.662;2023-02-19T05:37:19;3.47;;;3.17;;
11893;SDS011;6006;49.696;8.662;2023-02-19T05:39:47;4.07;;;3.67;;
11893;SDS011;6006;49.696;8.662;2023-02-19T05:42:14;3.83;;;3.33;;
11893;SDS011;6006;49.696;8.662;2023-02-19T05:44:41;3.30;;;3.00;;
11893;SDS011;6006;49.696;8.662;2023-02-19T05:47:09;3.67;;;3.37;;
11893;SDS011;6006;49.696;8.662;2023-02-19T05:49:36;3.87;;;3.47;;
11893;SDS011;6006;49.696;8.662;2023-02-19T05:52:03;4.53;;;4.07;;
11893;SDS011;6006;49.696;8.662;2023-02-19T05:54:30;3.73;;;3.43;;
11893;SDS011;6006;49.696;8.662;2023-02-19T05:56:57;3.77;;;3.47;;
11893;SDS011;6006;49.696;8.662;2023-02-19T05:59:24;3.47;;;3.13;;
11893;SDS011;6006;49.696;8.662;2023-02-19T06:01:52;3.90;;;3.50;;
11893;SDS011;6006;49.696;8.662;2023-02-19T06:04:21;3.73;;;3.43;;
11893;SDS011;6006;49.696;8.662;2023-02-19T06:06:48;4.13;;;3.37;;
11893;SDS011;6006;49.696;8.662;2023-02-19T06:09:15;3.80;;;3.50;;
11893;SDS011;6006;49.696;8.662;2023-02-19T06:11:42;4.13;;;3.73;;
11893;SDS011;6006;49.696;8.662;2023-02-19T06:14:09;4.30;;;3.90;;
11893;SDS011;6006;49.696;8.662;2023-02-19T06:16:38;3.93;;;3.60;;
11893;SDS011;6006;49.696;8.662;2023-02-19T06:19:05;4.33;;;3.43;;
11893;SDS011;6006;49.696;8.662;2023-02-19T06:21:33;4.00;;;3.63;;
11893;SDS011;6006;49.696;8.662;2023-02-19T06:24:03;4.43;;;4.03;;
11893;SDS011;6006;49.696;8.662;2023-02-19T06:26:31;3.83;;;3.53;;
11893;SDS011;6006;49.696;8.662;2023-02-19T06:28:58;4.20;;;3.80;;
11893;SDS011;6006;49.696;8.662;2023-02-19T06:31:25;4.73;;;3.63;;
11893;SDS011;6006;49.696;8.662;2023-02-19T06:33:52;4.63;;;4.13;;
11893;SDS011;6006;49.696;8.662;2023-02-19T06:36:20;4.23;;;3.83;;
11893;SDS011;6006;49.696;8.662;2023-02-19T06:38:49;5.20;;;4.70;;
11893;SDS011;6006;49.696;8.662;2023-02-19T06:41:16;5.57;;;5.03;;
11893;SDS011;6006;49.696;8.662;2023-02-19T06:43:43;6.30;;;5.20;;
11893;SDS011;6006;49.696;8.662;2023-02-19T06:46:10;5.90;;;5.30;;
11893;SDS011;6006;49.696;8.662;2023-02-19T06:48:38;7.60;;;6.80;;
11893;SDS011;6006;49.696;8.662;2023-02-19T06:51:06;7.03;;;5.60;;
11893;SDS011;6006;49.696;8.662;2023-02-19T06:53:34;6.63;;;5.97;;
11893;SDS011;6006;49.696;8.662;2023-02-19T06:56:03;9.03;;;6.40;;
11893;SDS011;6006;49.696;8.662;2023-02-19T06:58:32;7.37;;;5.97;;
11893;SDS011;6006;49.696;8.662;2023-02-19T07:00:59;6.07;;;5.47;;
11893;SDS011;6006;49.696;8.662;2023-02-19T07:03:26;15.90;;;11.37;;
11893;SDS011;6006;49.696;8.662;2023-02-19T07:05:53;9.50;;;6.93;;
11893;SDS011;6006;49.696;8.662;2023-02-19T07:08:20;7.30;;;6.57;;
11893;SDS011;6006;49.696;8.662;2023-02-19T07:10:52;5.73;;;5.13;;
11893;SDS011;6006;49.696;8.662;2023-02-19T07:13:22;5.47;;;4.87;;
11893;SDS011;6006;49.696;8.662;2023-02-19T07:15:49;5.90;;;4.90;;
11893;SDS011;6006;49.696;8.662;2023-02-19T07:18:16;5.30;;;4.50;;
11893;SDS011;6006;49.696;8.662;2023-02-19T07:20:43;4.63;;;4.23;;
11893;SDS011;6006;49.696;8.662;2023-02-19T07:23:10;6.97;;;5.87;;
11893;SDS011;6006;49.696;8.662;2023-02-19T07:25:36;4.70;;;4.17;;
11893;SDS011;6006;49.696;8.662;2023-02-19T07:28:04;4.77;;;3.67;;
11893;SDS011;6006;49.696;8.662;2023-02-19T07:30:32;4.03;;;3.63;;
11893;SDS011;6006;49.696;8.662;2023-02-19T07:32:59;6.30;;;5.20;;
11893;SDS011;6006;49.696;8.662;2023-02-19T07:35:26;5.23;;;4.50;;
11893;SDS011;6006;49.696;8.662;2023-02-19T07:37:53;4.60;;;4.03;;
11893;SDS011;6006;49.696;8.662;2023-02-19T07:40:20;4.00;;;3.63;;
11893;SDS011;6006;49.696;8.662;2023-02-19T07:42:47;3.43;;;3.07;;
11893;SDS011;6006;49.696;8.662;2023-02-19T07:45:14;3.83;;;3.50;;
11893;SDS011;6006;49.696;8.662;2023-02-19T07:47:42;4.67;;;3.53;;
11893;SDS011;6006;49.696;8.662;2023-02-19T07:50:09;4.00;;;3.57;;
11893;SDS011;6006;49.696;8.662;2023-02-19T07:52:36;3.47;;;3.20;;
11893;SDS011;6006;49.696;8.662;2023-02-19T07:55:03;3.63;;;3.33;;
11893;SDS011;6006;49.696;8.662;2023-02-19T07:57:30;3.80;;;2.97;;
11893;SDS011;6006;49.696;8.662;2023-02-19T07:59:57;4.60;;;3.97;;
11893;SDS011;6006;49.696;8.662;2023-02-19T08:02:24;4.80;;;3.97;;
11893;SDS011;6006;49.696;8.662;2023-02-19T08:05:10;3.93;;;3.53;;
11893;SDS011;6006;49.696;8.662;2023-02-19T08:07:37;4.10;;;3.20;;
11893;SDS011;6006;49.696;8.662;2023-02-19T08:10:04;6.43;;;3.57;;
11893;SDS011;6006;49.696;8.662;2023-02-19T08:12:56;3.43;;;3.07;;
11893;SDS011;6006;49.696;8.662;2023-02-19T08:15:41;5.33;;;3.23;;
11893;SDS011;6006;49.696;8.662;2023-02-19T08:18:09;34.20;;;4.87;;
11893;SDS011;6006;49.696;8.662;2023-02-19T08:20:37;2.60;;;2.40;;
11893;SDS011;6006;49.696;8.662;2023-02-19T08:23:05;3.00;;;2.70;;
11893;SDS011;6006;49.696;8.662;2023-02-19T08:25:32;3.33;;;2.73;;
11893;SDS011;6006;49.696;8.662;2023-02-19T08:28:00;2.93;;;2.43;;
11893;SDS011;6006;49.696;8.662;2023-02-19T08:30:27;2.60;;;2.40;;
11893;SDS011;6006;49.696;8.662;2023-02-19T08:32:54;3.07;;;2.50;;
11893;SDS011;6006;49.696;8.662;2023-02-19T08:35:22;2.63;;;2.03;;
11893;SDS011;6006;49.696;8.662;2023-02-19T08:37:52;3.60;;;3.30;;
11893;SDS011;6006;49.696;8.662;2023-02-19T08:40:21;2.73;;;2.43;;
11893;SDS011;6006;49.696;8.662;2023-02-19T08:42:48;2.33;;;2.00;;
11893;SDS011;6006;49.696;8.662;2023-02-19T08:45:15;3.90;;;3.43;;
11893;SDS011;6006;49.696;8.662;2023-02-19T08:47:42;4.43;;;2.30;;
11893;SDS011;6006;49.696;8.662;2023-02-19T08:50:09;2.80;;;2.60;;
11893;SDS011;6006;49.696;8.662;2023-02-19T08:52:37;3.73;;;2.50;;
11893;SDS011;6006;49.696;8.662;2023-02-19T08:55:05;4.37;;;3.53;;
11893;SDS011;6006;49.696;8.662;2023-02-19T08:57:34;3.07;;;2.30;;
11893;SDS011;6006;49.696;8.662;2023-02-19T09:00:01;3.53;;;2.30;;
11893;SDS011;6006;49.696;8.662;2023-02-19T09:02:29;3.37;;;3.07;;
11893;SDS011;6006;49.696;8.662;2023-02-19T09:04:56;1.97;;;1.83;;
11893;SDS011;6006;49.696;8.662;2023-02-19T09:07:23;3.27;;;2.00;;
11893;SDS011;6006;49.696;8.662;2023-02-19T09:09:50;5.03;;;2.80;;
11893;SDS011;6006;49.696;8.662;2023-02-19T09:12:18;2.20;;;2.00;;
11893;SDS011;6006;49.696;8.662;2023-02-19T09:14:45;3.63;;;2.70;;
11893;SDS011;6006;49.696;8.662;2023-02-19T09:17:12;2.73;;;2.03;;
11893;SDS011;6006;49.696;8.662;2023-02-19T09:19:39;2.13;;;2.00;;
11893;SDS011;6006;49.696;8.662;2023-02-19T09:22:06;2.77;;;2.13;;
11893;SDS011;6006;49.696;8.662;2023-02-19T09:24:33;2.73;;;1.90;;
11893;SDS011;6006;49.696;8.662;2023-02-19T09:27:00;4.17;;;2.10;;
11893;SDS011;6006;49.696;8.662;2023-02-19T09:29:28;2.67;;;2.00;;
11893;SDS011;6006;49.696;8.662;2023-02-19T09:31:55;3.63;;;1.87;;
11893;SDS011;6006;49.696;8.662;2023-02-19T09:34:23;2.37;;;2.00;;
11893;SDS011;6006;49.696;8.662;2023-02-19T09:36:50;3.17;;;1.53;;
11893;SDS011;6006;49.696;8.662;2023-02-19T09:39:18;1.63;;;1.50;;
11893;SDS011;6006;49.696;8.662;2023-02-19T09:41:46;1.70;;;1.60;;
11893;SDS011;6006;49.696;8.662;2023-02-19T09:44:19;2.43;;;1.43;;
11893;SDS011;6006;49.696;8.662;2023-02-19T09:46:52;1.80;;;1.50;;
11893;SDS011;6006;49.696;8.662;2023-02-19T09:49:20;2.47;;;1.67;;
11893;SDS011;6006;49.696;8.662;2023-02-19T09:51:54;1.53;;;1.40;;
11893;SDS011;6006;49.696;8.662;2023-02-19T09:54:24;3.13;;;1.60;;
11893;SDS011;6006;49.696;8.662;2023-02-19T09:56:52;1.87;;;1.50;;
11893;SDS011;6006;49.696;8.662;2023-02-19T09:59:22;3.93;;;1.53;;
11893;SDS011;6006;49.696;8.662;2023-02-19T10:01:55;2.57;;;2.00;;
11893;SDS011;6006;49.696;8.662;2023-02-19T10:04:27;5.80;;;1.90;;
11893;SDS011;6006;49.696;8.662;2023-02-19T10:06:55;3.53;;;1.50;;
11893;SDS011;6006;49.696;8.662;2023-02-19T10:09:28;3.80;;;2.13;;
11893;SDS011;6006;49.696;8.662;2023-02-19T10:11:56;2.80;;;2.00;;
11893;SDS011;6006;49.696;8.662;2023-02-19T10:14:27;1.77;;;1.67;;
11893;SDS011;6006;49.696;8.662;2023-02-19T10:17:02;3.43;;;1.77;;
11893;SDS011;6006;49.696;8.662;2023-02-19T10:19:30;2.17;;;1.70;;
11893;SDS011;6006;49.696;8.662;2023-02-19T10:22:01;2.43;;;1.83;;
11893;SDS011;6006;49.696;8.662;2023-02-19T10:24:29;3.70;;;1.60;;
11893;SDS011;6006;49.696;8.662;2023-02-19T10:26:56;1.70;;;1.30;;
11893;SDS011;6006;49.696;8.662;2023-02-19T10:29:23;1.47;;;1.37;;
11893;SDS011;6006;49.696;8.662;2023-02-19T10:34:46;2.03;;;1.40;;
11893;SDS011;6006;49.696;8.662;2023-02-19T10:37:14;1.93;;;1.27;;
11893;SDS011;6006;49.696;8.662;2023-02-19T10:39:43;4.53;;;1.80;;
11893;SDS011;6006;49.696;8.662;2023-02-19T10:42:15;2.30;;;1.40;;
11893;SDS011;6006;49.696;8.662;2023-02-19T10:44:45;2.13;;;1.50;;
11893;SDS011;6006;49.696;8.662;2023-02-19T10:47:17;1.70;;;1.40;;
11893;SDS011;6006;49.696;8.662;2023-02-19T10:49:47;2.00;;;1.77;;
11893;SDS011;6006;49.696;8.662;2023-02-19T10:52:17;3.17;;;1.47;;
11893;SDS011;6006;49.696;8.662;2023-02-19T10:54:49;1.90;;;1.43;;
11893;SDS011;6006;49.696;8.662;2023-02-19T10:57:23;2.20;;;1.60;;
11893;SDS011;6006;49.696;8.662;2023-02-19T10:59:55;1.50;;;1.40;;
11893;SDS011;6006;49.696;8.662;2023-02-19T11:02:24;3.43;;;1.60;;
11893;SDS011;6006;49.696;8.662;2023-02-19T11:07:43;3.70;;;1.57;;
11893;SDS011;6006;49.696;8.662;2023-02-19T11:10:23;1.90;;;1.13;;
11893;SDS011;6006;49.696;8.662;2023-02-19T11:12:53;1.27;;;1.00;;
11893;SDS011;6006;49.696;8.662;2023-02-19T11:15:22;2.60;;;1.00;;
11893;SDS011;6006;49.696;8.662;2023-02-19T11:17:55;1.00;;;0.90;;
11893;SDS011;6006;49.696;8.662;2023-02-19T11:20:24;2.07;;;1.00;;
11893;SDS011;6006;49.696;8.662;2023-02-19T11:22:54;5.60;;;1.60;;
11893;SDS011;6006;49.696;8.662;2023-02-19T11:25:24;2.63;;;1.30;;
11893;SDS011;6006;49.696;8.662;2023-02-19T11:27:55;2.00;;;1.20;;
11893;SDS011;6006;49.696;8.662;2023-02-19T11:30:31;2.43;;;1.33;;
11893;SDS011;6006;49.696;8.662;2023-02-19T11:33:13;5.27;;;1.33;;
11893;SDS011;6006;49.696;8.662;2023-02-19T11:35:53;2.80;;;1.10;;
11893;SDS011;6006;49.696;8.662;2023-02-19T11:38:25;3.10;;;1.30;;
11893;SDS011;6006;49.696;8.662;2023-02-19T11:40:54;2.10;;;1.13;;
11893;SDS011;6006;49.696;8.662;2023-02-19T11:43:38;2.87;;;1.17;;
11893;SDS011;6006;49.696;8.662;2023-02-19T11:46:19;4.97;;;1.27;;
11893;SDS011;6006;49.696;8.662;2023-02-19T11:48:57;1.63;;;1.07;;
11893;SDS011;6006;49.696;8.662;2023-02-19T11:51:37;1.20;;;0.87;;
11893;SDS011;6006;49.696;8.662;2023-02-19T11:54:26;3.53;;;0.90;;
11893;SDS011;6006;49.696;8.662;2023-02-19T11:57:08;1.90;;;0.80;;
11893;SDS011;6006;49.696;8.662;2023-02-19T11:59:43;1.60;;;1.00;;
11893;SDS011;6006;49.696;8.662;2023-02-19T12:02:21;2.10;;;1.10;;
11893;SDS011;6006;49.696;8.662;2023-02-19T12:05:07;2.13;;;0.97;;
11893;SDS011;6006;49.696;8.662;2023-02-19T12:10:57;1.77;;;1.30;;
11893;SDS011;6006;49.696;8.662;2023-02-19T12:13:44;2.90;;;1.00;;
11893;SDS011;6006;49.696;8.662;2023-02-19T12:16:21;2.23;;;1.00;;
11893;SDS011;6006;49.696;8.662;2023-02-19T12:19:04;2.10;;;1.10;;
11893;SDS011;6006;49.696;8.662;2023-02-19T12:22:08;1.30;;;0.80;;
11893;SDS011;6006;49.696;8.662;2023-02-19T12:28:02;1.43;;;0.90;;
11893;SDS011;6006;49.696;8.662;2023-02-19T12:30:50;1.43;;;1.00;;
11893;SDS011;6006;49.696;8.662;2023-02-19T12:33:44;2.20;;;1.63;;
11893;SDS011;6006;49.696;8.662;2023-02-19T12:36:22;2.00;;;0.90;;
11893;SDS011;6006;49.696;8.662;2023-02-19T12:39:00;1.93;;;0.90;;
11893;SDS011;6006;49.696;8.662;2023-02-19T12:41:35;2.30;;;0.93;;
11893;SDS011;6006;49.696;8.662;2023-02-19T12:44:08;1.77;;;0.90;;
11893;SDS011;6006;49.696;8.662;2023-02-19T12:46:42;2.17;;;1.00;;
11893;SDS011;6006;49.696;8.662;2023-02-19T12:49:14;3.35;;;1.02;;
11893;SDS011;6006;49.696;8.662;2023-02-19T12:51:48;3.17;;;0.80;;
11893;SDS011;6006;49.696;8.662;2023-02-19T12:54:24;2.53;;;0.90;;
11893;SDS011;6006;49.696;8.662;2023-02-19T12:56:55;2.20;;;0.90;;
11893;SDS011;6006;49.696;8.662;2023-02-19T12:59:28;2.03;;;1.00;;
11893;SDS011;6006;49.696;8.662;2023-02-19T13:01:59;3.17;;;0.70;;
11893;SDS011;6006;49.696;8.662;2023-02-19T13:04:37;1.83;;;0.93;;
11893;SDS011;6006;49.696;8.662;2023-02-19T13:07:09;1.93;;;0.83;;
11893;SDS011;6006;49.696;8.662;2023-02-19T13:09:44;3.07;;;1.30;;
11893;SDS011;6006;49.696;8.662;2023-02-19T13:12:16;2.57;;;0.90;;
11893;SDS011;6006;49.696;8.662;2023-02-19T13:14:50;3.73;;;1.10;;
11893;SDS011;6006;49.696;8.662;2023-02-19T13:17:22;2.30;;;1.07;;
11893;SDS011;6006;49.696;8.662;2023-02-19T13:19:54;1.80;;;0.90;;
11893;SDS011;6006;49.696;8.662;2023-02-19T13:22:25;1.27;;;0.70;;
11893;SDS011;6006;49.696;8.662;2023-02-19T13:25:18;2.33;;;0.90;;
11893;SDS011;6006;49.696;8.662;2023-02-19T13:27:59;2.67;;;1.00;;
11893;SDS011;6006;49.696;8.662;2023-02-19T13:30:42;1.30;;;1.00;;
11893;SDS011;6006;49.696;8.662;2023-02-19T13:33:33;3.27;;;1.30;;
11893;SDS011;6006;49.696;8.662;2023-02-19T13:36:09;1.87;;;0.93;;
11893;SDS011;6006;49.696;8.662;2023-02-19T13:38:39;2.10;;;0.90;;
11893;SDS011;6006;49.696;8.662;2023-02-19T13:41:19;2.23;;;1.07;;
11893;SDS011;6006;49.696;8.662;2023-02-19T13:43:53;3.70;;;1.07;;
11893;SDS011;6006;49.696;8.662;2023-02-19T13:46:31;4.07;;;1.23;;
11893;SDS011;6006;49.696;8.662;2023-02-19T14:01:18;1.47;;;1.30;;
11893;SDS011;6006;49.696;8.662;2023-02-19T14:03:46;2.10;;;1.00;;
11893;SDS011;6006;49.696;8.662;2023-02-19T14:06:18;1.43;;;1.03;;
11893;SDS011;6006;49.696;8.662;2023-02-19T14:08:46;1.77;;;1.10;;
11893;SDS011;6006;49.696;8.662;2023-02-19T14:11:15;2.63;;;1.00;;
11893;SDS011;6006;49.696;8.662;2023-02-19T14:14:01;1.67;;;1.07;;
11893;SDS011;6006;49.696;8.662;2023-02-19T14:25:40;1.93;;;1.40;;
11893;SDS011;6006;49.696;8.662;2023-02-19T14:28:17;2.43;;;1.37;;
11893;SDS011;6006;49.696;8.662;2023-02-19T14:30:55;4.00;;;1.43;;
11893;SDS011;6006;49.696;8.662;2023-02-19T14:33:26;1.90;;;1.03;;
11893;SDS011;6006;49.696;8.662;2023-02-19T14:35:55;1.83;;;0.77;;
11893;SDS011;6006;49.696;8.662;2023-02-19T14:38:30;2.10;;;0.90;;
11893;SDS011;6006;49.696;8.662;2023-02-19T14:41:01;3.27;;;0.97;;
11893;SDS011;6006;49.696;8.662;2023-02-19T14:43:29;2.17;;;0.93;;
11893;SDS011;6006;49.696;8.662;2023-02-19T14:46:00;1.57;;;1.00;;
11893;SDS011;6006;49.696;8.662;2023-02-19T14:48:33;2.57;;;1.03;;
11893;SDS011;6006;49.696;8.662;2023-02-19T14:51:05;3.93;;;1.83;;
11893;SDS011;6006;49.696;8.662;2023-02-19T14:53:36;6.10;;;3.90;;
11893;SDS011;6006;49.696;8.662;2023-02-19T14:56:12;2.57;;;1.97;;
11893;SDS011;6006;49.696;8.662;2023-02-19T14:58:44;3.60;;;2.40;;
11893;SDS011;6006;49.696;8.662;2023-02-19T15:01:25;1.60;;;1.07;;
11893;SDS011;6006;49.696;8.662;2023-02-19T15:03:53;2.10;;;1.00;;
11893;SDS011;6006;49.696;8.662;2023-02-19T15:06:20;2.40;;;1.03;;
11893;SDS011;6006;49.696;8.662;2023-02-19T15:08:48;3.07;;;1.07;;
11893;SDS011;6006;49.696;8.662;2023-02-19T15:11:18;2.03;;;1.20;;
11893;SDS011;6006;49.696;8.662;2023-02-19T15:13:47;0.87;;;0.83;;
11893;SDS011;6006;49.696;8.662;2023-02-19T15:16:17;2.70;;;1.30;;
11893;SDS011;6006;49.696;8.662;2023-02-19T15:18:47;1.70;;;1.03;;
11893;SDS011;6006;49.696;8.662;2023-02-19T15:21:21;4.13;;;1.40;;
11893;SDS011;6006;49.696;8.662;2023-02-19T15:23:49;1.93;;;0.90;;
11893;SDS011;6006;49.696;8.662;2023-02-19T15:26:19;1.80;;;0.80;;
11893;SDS011;6006;49.696;8.662;2023-02-19T15:28:55;3.53;;;1.17;;
11893;SDS011;6006;49.696;8.662;2023-02-19T15:31:23;1.63;;;1.00;;
11893;SDS011;6006;49.696;8.662;2023-02-19T15:33:51;2.27;;;1.17;;
11893;SDS011;6006;49.696;8.662;2023-02-19T15:36:22;2.30;;;1.20;;
11893;SDS011;6006;49.696;8.662;2023-02-19T15:38:53;2.77;;;1.20;;
11893;SDS011;6006;49.696;8.662;2023-02-19T15:41:22;2.07;;;1.27;;
11893;SDS011;6006;49.696;8.662;2023-02-19T15:43:53;1.87;;;1.00;;
11893;SDS011;6006;49.696;8.662;2023-02-19T15:46:25;4.20;;;1.20;;
11893;SDS011;6006;49.696;8.662;2023-02-19T15:48:55;2.60;;;1.50;;
11893;SDS011;6006;49.696;8.662;2023-02-19T15:51:28;3.03;;;1.07;;
11893;SDS011;6006;49.696;8.662;2023-02-19T15:53:59;3.83;;;1.30;;
11893;SDS011;6006;49.696;8.662;2023-02-19T15:56:32;1.73;;;1.03;;
11893;SDS011;6006;49.696;8.662;2023-02-19T15:59:01;2.90;;;1.03;;
11893;SDS011;6006;49.696;8.662;2023-02-19T16:01:32;1.10;;;1.00;;